createdAt,value
2023-02-19T00:00:22.210Z,962.3343506
2023-02-19T00:01:22.809Z,962.3448486
2023-02-19T00:02:23.430Z,962.3320313
2023-02-19T00:03:24.735Z,962.3459473
2023-02-19T00:04:25.310Z,962.3671875
2023-02-19T00:05:25.839Z,962.3362427
2023-02-19T00:06:26.431Z,962.3188477
2023-02-19T00:07:27.040Z,962.3651733
2023-02-19T00:08:27.519Z,962.3917236
2023-02-19T00:09:28.027Z,962.3596191
2023-02-19T00:10:29.280Z,962.3208008
2023-02-19T00:11:29.875Z,962.4127197
2023-02-19T00:12:30.385Z,962.3909302
2023-02-19T00:13:30.963Z,962.3948364
2023-02-19T00:14:31.562Z,962.3473511
2023-02-19T00:15:32.033Z,962.3272095
2023-02-19T00:16:32.549Z,962.3440552
2023-02-19T00:17:33.220Z,962.3206177
2023-02-19T00:18:33.816Z,962.328125
2023-02-19T00:19:34.417Z,962.3057251
2023-02-19T00:20:35.716Z,962.3021851
2023-02-19T00:21:36.266Z,962.3241577
2023-02-19T00:22:36.996Z,962.2694702
2023-02-19T00:23:37.638Z,962.2659302
2023-02-19T00:24:38.208Z,962.2575684
2023-02-19T00:25:38.806Z,962.2427979
2023-02-19T00:26:39.310Z,962.2368774
2023-02-19T00:27:40.531Z,962.2025146
2023-02-19T00:28:41.121Z,962.2320557
2023-02-19T00:29:41.641Z,962.2159424
2023-02-19T00:30:42.810Z,962.208252
2023-02-19T00:31:43.299Z,962.2377319
2023-02-19T00:32:43.732Z,962.2354126
2023-02-19T00:33:44.310Z,962.21875
2023-02-19T00:34:44.820Z,962.1913452
2023-02-19T00:35:45.356Z,962.2233887
2023-02-19T00:36:45.880Z,962.197998
2023-02-19T00:37:46.408Z,962.1970825
2023-02-19T00:38:47.443Z,962.1848145
2023-02-19T00:40:18.988Z,962.2190552
2023-02-19T00:41:19.527Z,962.2176514
2023-02-19T00:42:20.002Z,962.2561646
2023-02-19T00:43:20.593Z,962.2334595
2023-02-19T00:44:21.144Z,962.2192383
2023-02-19T00:45:21.787Z,962.2244263
2023-02-19T00:46:22.325Z,962.2804565
2023-02-19T00:47:22.810Z,962.2732544
2023-02-19T00:48:23.313Z,962.2782593
2023-02-19T00:49:23.884Z,962.2846069
2023-02-19T00:50:24.988Z,962.3535767
2023-02-19T00:51:25.600Z,962.3150635
2023-02-19T00:52:26.145Z,962.3048706
2023-02-19T00:53:26.670Z,962.3615723
2023-02-19T00:54:27.271Z,962.3220215
2023-02-19T00:55:27.861Z,962.375
2023-02-19T00:56:28.394Z,962.3629761
2023-02-19T00:57:28.984Z,962.3364258
2023-02-19T00:58:29.451Z,962.3322144
2023-02-19T00:59:29.994Z,962.317627
2023-02-19T01:00:31.674Z,962.282959
2023-02-19T01:01:32.173Z,962.3201294
2023-02-19T01:02:32.678Z,962.2746582
2023-02-19T01:03:33.242Z,962.2767944
2023-02-19T01:04:33.799Z,962.2589111
2023-02-19T01:05:34.419Z,962.2327881
2023-02-19T01:06:34.997Z,962.2316284
2023-02-19T01:07:35.552Z,962.1998291
2023-02-19T01:08:36.103Z,962.1575928
2023-02-19T01:09:36.656Z,962.2005615
2023-02-19T01:10:38.001Z,962.1973267
2023-02-19T01:11:39.514Z,962.1137695
2023-02-19T01:12:40.149Z,962.138916
2023-02-19T01:13:40.980Z,962.0925293
2023-02-19T01:14:41.532Z,962.1068115
2023-02-19T01:15:42.378Z,962.111145
2023-02-19T01:16:42.662Z,962.1001587
2023-02-19T01:17:43.227Z,962.0917358
2023-02-19T01:18:43.737Z,962.0764771
2023-02-19T01:19:44.256Z,962.1080322
2023-02-19T01:20:44.763Z,962.0778198
2023-02-19T01:21:45.296Z,962.0505371
2023-02-19T01:22:45.903Z,962.0500488
2023-02-19T01:23:46.923Z,962.0932617
2023-02-19T01:25:17.713Z,962.0410156
2023-02-19T01:26:18.262Z,962.0385132
2023-02-19T01:27:18.757Z,962.0452881
2023-02-19T01:28:19.314Z,961.9985352
2023-02-19T01:29:20.788Z,962.0177612
2023-02-19T01:30:21.417Z,962.0402832
2023-02-19T01:31:22.975Z,962.0025024
2023-02-19T01:32:23.357Z,962.0284424
2023-02-19T01:33:23.841Z,962.0041504
2023-02-19T01:34:24.358Z,962.0054932
2023-02-19T01:35:24.896Z,961.991394
2023-02-19T01:36:25.400Z,962.0010986
2023-02-19T01:37:26.024Z,962.0580444
2023-02-19T01:38:26.492Z,962.041748
2023-02-19T01:39:26.957Z,962.0664063
2023-02-19T01:40:27.990Z,962.0231323
2023-02-19T01:41:28.519Z,962.0748291
2023-02-19T01:42:29.735Z,962.0990601
2023-02-19T01:43:30.180Z,962.0871582
2023-02-19T01:44:30.716Z,962.1119385
2023-02-19T01:45:31.224Z,962.0730591
2023-02-19T01:46:31.811Z,962.0665894
2023-02-19T01:47:32.286Z,962.0348511
2023-02-19T01:48:32.711Z,962.0793457
2023-02-19T01:49:33.183Z,962.0465698
2023-02-19T01:50:34.526Z,962.1120605
2023-02-19T01:51:35.096Z,962.0940552
2023-02-19T01:52:35.660Z,962.0853271
2023-02-19T01:53:36.124Z,962.0592041
2023-02-19T01:54:36.585Z,962.0581055
2023-02-19T01:55:37.135Z,962.0374756
2023-02-19T01:56:37.636Z,962.0147705
2023-02-19T01:57:38.187Z,962.0076294
2023-02-19T01:58:39.459Z,961.96875
2023-02-19T01:59:39.943Z,961.9804688
2023-02-19T02:00:41.536Z,961.9237671
2023-02-19T02:01:42.157Z,961.9484863
2023-02-19T02:02:42.584Z,961.9395142
2023-02-19T02:03:43.074Z,961.8937378
2023-02-19T02:04:43.598Z,961.8233032
2023-02-19T02:05:44.107Z,961.8521118
2023-02-19T02:06:44.673Z,961.8013306
2023-02-19T02:07:45.173Z,961.8276367
2023-02-19T02:08:45.625Z,961.8166504
2023-02-19T02:10:16.734Z,961.8688965
2023-02-19T02:11:18.228Z,961.868103
2023-02-19T02:12:18.715Z,961.8417969
2023-02-19T02:13:19.227Z,961.8786011
2023-02-19T02:14:20.237Z,961.8646851
2023-02-19T02:15:20.734Z,961.8649902
2023-02-19T02:16:21.425Z,961.8422852
2023-02-19T02:17:21.706Z,961.8609619
2023-02-19T02:18:22.330Z,961.8689575
2023-02-19T02:19:22.827Z,961.8823242
2023-02-19T02:20:23.332Z,961.8345947
2023-02-19T02:21:23.847Z,961.828125
2023-02-19T02:22:24.983Z,961.7958374
2023-02-19T02:23:25.461Z,961.817627
2023-02-19T02:24:25.923Z,961.8032227
2023-02-19T02:25:26.399Z,961.8057861
2023-02-19T02:26:26.866Z,961.7792358
2023-02-19T02:27:27.329Z,961.7717285
2023-02-19T02:28:27.889Z,961.744751
2023-02-19T02:29:29.304Z,961.7537231
2023-02-19T02:30:29.842Z,961.758728
2023-02-19T02:31:31.480Z,961.7139282
2023-02-19T02:32:31.693Z,961.6915894
2023-02-19T02:33:32.289Z,961.6671143
2023-02-19T02:34:32.770Z,961.6347046
2023-02-19T02:35:33.272Z,961.5939331
2023-02-19T02:36:33.788Z,961.6147461
2023-02-19T02:37:34.289Z,961.632019
2023-02-19T02:38:34.753Z,961.5667114
2023-02-19T02:39:35.236Z,961.5460815
2023-02-19T02:40:35.796Z,961.52771
2023-02-19T02:41:37.231Z,961.524292
2023-02-19T02:42:37.706Z,961.4753418
2023-02-19T02:43:38.187Z,961.5039063
2023-02-19T02:44:39.242Z,961.5144653
2023-02-19T02:45:39.970Z,961.50354
2023-02-19T02:46:40.565Z,961.5161133
2023-02-19T02:47:40.945Z,961.5220337
2023-02-19T02:48:41.509Z,961.5396729
2023-02-19T02:49:41.962Z,961.5360718
2023-02-19T02:50:42.516Z,961.5114136
2023-02-19T02:51:43.783Z,961.524353
2023-02-19T02:52:44.276Z,961.5564575
2023-02-19T02:53:44.780Z,961.5891113
2023-02-19T02:54:45.675Z,961.6173706
2023-02-19T02:56:16.403Z,961.6085815
2023-02-19T02:57:16.937Z,961.6226807
2023-02-19T02:58:17.445Z,961.5912476
2023-02-19T02:59:18.688Z,961.5859375
2023-02-19T03:00:19.202Z,961.5923462
2023-02-19T03:01:20.530Z,961.545166
2023-02-19T03:02:21.053Z,961.5131226
2023-02-19T03:03:21.524Z,961.5332642
2023-02-19T03:04:22.017Z,961.4625854
2023-02-19T03:05:22.523Z,961.4157104
2023-02-19T03:06:22.983Z,961.4102173
2023-02-19T03:07:23.500Z,961.3476563
2023-02-19T03:08:24.065Z,961.3323975
2023-02-19T03:09:24.565Z,961.3409424
2023-02-19T03:10:25.102Z,961.3275146
2023-02-19T03:11:26.489Z,961.3563843
2023-02-19T03:12:26.990Z,961.3931274
2023-02-19T03:13:27.502Z,961.4187622
2023-02-19T03:14:28.007Z,961.3597412
2023-02-19T03:15:28.493Z,961.3870239
2023-02-19T03:16:28.971Z,961.3814087
2023-02-19T03:17:29.462Z,961.3463135
2023-02-19T03:18:30.014Z,961.3660889
2023-02-19T03:19:30.526Z,961.3439331
2023-02-19T03:20:31.057Z,961.3605957
2023-02-19T03:21:32.485Z,961.3490601
2023-02-19T03:22:33.045Z,961.3451538
2023-02-19T03:23:33.604Z,961.3148193
2023-02-19T03:24:34.200Z,961.2826538
2023-02-19T03:25:34.692Z,961.2376709
2023-02-19T03:26:35.211Z,961.286499
2023-02-19T03:27:35.689Z,961.2792358
2023-02-19T03:28:36.740Z,961.2810059
2023-02-19T03:29:38.200Z,961.2977295
2023-02-19T03:30:38.765Z,961.2974854
2023-02-19T03:31:40.048Z,961.2828369
2023-02-19T03:32:40.895Z,961.3005981
2023-02-19T03:33:41.330Z,961.3566895
2023-02-19T03:34:41.836Z,961.4137573
2023-02-19T03:35:42.392Z,961.4589233
2023-02-19T03:36:42.948Z,961.5440674
2023-02-19T03:37:43.401Z,961.5510864
2023-02-19T03:38:43.968Z,961.5939331
2023-02-19T03:39:44.632Z,961.6306152
2023-02-19T03:41:15.641Z,961.7006836
2023-02-19T03:42:16.787Z,961.7023315
2023-02-19T03:43:17.310Z,961.7453003
2023-02-19T03:44:17.833Z,961.692627
2023-02-19T03:45:18.344Z,961.6345215
2023-02-19T03:46:18.862Z,961.62146
2023-02-19T03:47:19.405Z,961.5842285
2023-02-19T03:48:19.888Z,961.5932617
2023-02-19T03:49:20.452Z,961.553772
2023-02-19T03:50:20.908Z,961.4968262
2023-02-19T03:51:21.535Z,961.5064697
2023-02-19T03:52:22.762Z,961.5703125
2023-02-19T03:53:23.260Z,961.5466309
2023-02-19T03:54:23.843Z,961.546814
2023-02-19T03:55:24.310Z,961.6065063
2023-02-19T03:56:24.931Z,961.5710449
2023-02-19T03:57:25.458Z,961.560791
2023-02-19T03:58:26.042Z,961.5408325
2023-02-19T03:59:27.243Z,961.5166626
2023-02-19T04:00:27.765Z,961.5022583
2023-02-19T04:01:28.315Z,961.4781494
2023-02-19T04:02:29.911Z,961.512207
2023-02-19T04:03:30.452Z,961.4716187
2023-02-19T04:04:30.870Z,961.46875
2023-02-19T04:05:31.321Z,961.4126587
2023-02-19T04:06:31.918Z,961.4082642
2023-02-19T04:07:32.434Z,961.3431396
2023-02-19T04:08:33.001Z,961.3074951
2023-02-19T04:09:33.472Z,961.2579956
2023-02-19T04:10:33.974Z,961.315918
2023-02-19T04:11:34.591Z,961.3551636
2023-02-19T04:12:36.000Z,961.4157715
2023-02-19T04:13:36.548Z,961.4179688
2023-02-19T04:14:37.079Z,961.4714355
2023-02-19T04:15:37.577Z,961.4869385
2023-02-19T04:16:38.076Z,961.4740601
2023-02-19T04:17:38.674Z,961.4874878
2023-02-19T04:18:39.293Z,961.4632568
2023-02-19T04:19:39.688Z,961.5536499
2023-02-19T04:20:40.257Z,961.6402588
2023-02-19T04:21:40.944Z,961.6366577
2023-02-19T04:22:42.275Z,961.7067261
2023-02-19T04:23:42.823Z,961.7440796
2023-02-19T04:24:43.382Z,961.7623291
2023-02-19T04:25:43.941Z,961.7814331
2023-02-19T04:27:14.986Z,961.803833
2023-02-19T04:28:15.505Z,961.7857056
2023-02-19T04:29:16.767Z,961.7938843
2023-02-19T04:30:17.335Z,961.7029419
2023-02-19T04:31:17.980Z,961.7237549
2023-02-19T04:32:19.275Z,961.7653198
2023-02-19T04:33:19.793Z,961.8560791
2023-02-19T04:34:20.459Z,961.9257813
2023-02-19T04:35:20.915Z,961.9202881
2023-02-19T04:36:21.448Z,961.9246216
2023-02-19T04:37:21.948Z,961.8848267
2023-02-19T04:38:22.435Z,961.822998
2023-02-19T04:39:23.065Z,961.8421021
2023-02-19T04:40:23.601Z,961.7839966
2023-02-19T04:41:24.075Z,961.7271729
2023-02-19T04:42:25.215Z,961.7247925
2023-02-19T04:43:25.740Z,961.6959229
2023-02-19T04:44:26.307Z,961.6928101
2023-02-19T04:45:26.807Z,961.6709595
2023-02-19T04:46:27.442Z,961.6447754
2023-02-19T04:47:27.786Z,961.5755615
2023-02-19T04:48:28.300Z,961.5834961
2023-02-19T04:49:28.886Z,961.588623
2023-02-19T04:50:29.508Z,961.5463257
2023-02-19T04:51:29.995Z,961.5163574
2023-02-19T04:52:31.242Z,961.5159302
2023-02-19T04:53:31.797Z,961.4776001
2023-02-19T04:54:32.300Z,961.4324951
2023-02-19T04:55:32.756Z,961.406189
2023-02-19T04:56:33.319Z,961.3110962
2023-02-19T04:57:33.879Z,961.3105469
2023-02-19T04:58:34.404Z,961.2684326
2023-02-19T04:59:35.726Z,961.2427979
2023-02-19T05:00:36.218Z,961.196106
2023-02-19T05:01:36.757Z,961.1898193
2023-02-19T05:02:37.784Z,961.1834106
2023-02-19T05:03:38.311Z,961.2243042
2023-02-19T05:04:39.006Z,961.2271729
2023-02-19T05:05:39.358Z,961.2495117
2023-02-19T05:06:39.873Z,961.2971802
2023-02-19T05:07:40.663Z,961.3451538
2023-02-19T05:08:41.147Z,961.3179932
2023-02-19T05:09:41.670Z,961.4048462
2023-02-19T05:10:42.205Z,961.4207764
2023-02-19T05:11:43.478Z,961.4488525
2023-02-19T05:13:15.292Z,961.4221802
2023-02-19T05:14:15.770Z,961.4896851
2023-02-19T05:15:16.293Z,961.458374
2023-02-19T05:16:16.736Z,961.4124756
2023-02-19T05:17:17.271Z,961.4103394
2023-02-19T05:18:17.789Z,961.4257813
2023-02-19T05:19:18.302Z,961.5499878
2023-02-19T05:20:18.817Z,961.5923462
2023-02-19T05:21:19.316Z,961.6418457
2023-02-19T05:22:20.483Z,961.7015381
2023-02-19T05:23:21.071Z,961.765564
2023-02-19T05:24:21.582Z,961.7871094
2023-02-19T05:25:22.103Z,961.7896729
2023-02-19T05:26:22.594Z,961.7288818
2023-02-19T05:27:23.102Z,961.7492065
2023-02-19T05:28:24.560Z,961.6503296
2023-02-19T05:29:25.069Z,961.5960693
2023-02-19T05:30:25.582Z,961.5965576
2023-02-19T05:31:26.198Z,961.5654907
2023-02-19T05:32:27.462Z,961.5449829
2023-02-19T05:33:28.008Z,961.5267334
2023-02-19T05:34:28.540Z,961.4922485
2023-02-19T05:35:29.137Z,961.5154419
2023-02-19T05:36:29.571Z,961.4561157
2023-02-19T05:37:30.041Z,961.5273438
2023-02-19T05:38:30.516Z,961.5504761
2023-02-19T05:39:31.026Z,961.5992432
2023-02-19T05:40:31.530Z,961.6535645
2023-02-19T05:41:32.064Z,961.6629028
2023-02-19T05:42:33.476Z,961.5895386
2023-02-19T05:43:33.972Z,961.5720215
2023-02-19T05:44:34.442Z,961.5379028
2023-02-19T05:45:35.014Z,961.5004883
2023-02-19T05:46:35.609Z,961.5057983
2023-02-19T05:47:36.124Z,961.5257568
2023-02-19T05:48:36.606Z,961.5789795
2023-02-19T05:49:37.081Z,961.6304932
2023-02-19T05:50:39.718Z,961.5777588
2023-02-19T05:51:38.163Z,961.6115723
2023-02-19T05:52:39.500Z,961.6027222
2023-02-19T05:53:40.022Z,961.6133423
2023-02-19T05:54:40.771Z,961.585144
2023-02-19T05:55:41.381Z,961.5615845
2023-02-19T05:56:41.903Z,961.5466309
2023-02-19T05:57:43.652Z,961.5498657
2023-02-19T05:58:44.008Z,961.6512451
2023-02-19T06:00:14.746Z,961.6165771
2023-02-19T06:01:15.302Z,961.6361694
2023-02-19T06:02:15.778Z,961.6190796
2023-02-19T06:03:17.268Z,961.6101685
2023-02-19T06:04:17.837Z,961.6032715
2023-02-19T06:05:18.364Z,961.5933838
2023-02-19T06:06:18.908Z,961.5348511
2023-02-19T06:07:19.374Z,961.5378418
2023-02-19T06:08:19.814Z,961.5466919
2023-02-19T06:09:20.289Z,961.5222168
2023-02-19T06:10:20.769Z,961.465332
2023-02-19T06:11:21.267Z,961.4707642
2023-02-19T06:12:21.738Z,961.4806519
2023-02-19T06:13:23.221Z,961.5822144
2023-02-19T06:14:23.734Z,961.6193848
2023-02-19T06:15:24.270Z,961.6592407
2023-02-19T06:16:24.810Z,961.7068481
2023-02-19T06:17:25.275Z,961.7052612
2023-02-19T06:18:25.747Z,961.7301636
2023-02-19T06:19:26.210Z,961.7126465
2023-02-19T06:20:26.728Z,961.7526855
2023-02-19T06:21:27.865Z,961.798645
2023-02-19T06:22:27.712Z,961.7793579
2023-02-19T06:23:28.752Z,961.7973633
2023-02-19T06:24:29.252Z,961.788147
2023-02-19T06:25:29.721Z,961.779541
2023-02-19T06:26:30.218Z,961.7902832
2023-02-19T06:27:30.713Z,961.7888184
2023-02-19T06:28:31.178Z,961.7567139
2023-02-19T06:29:32.494Z,961.7949829
2023-02-19T06:30:33.062Z,961.7654419
2023-02-19T06:31:33.597Z,961.8074951
2023-02-19T06:32:34.035Z,961.8174438
2023-02-19T06:33:35.258Z,961.7636108
2023-02-19T06:34:35.749Z,961.7583618
2023-02-19T06:35:36.227Z,961.7139282
2023-02-19T06:36:36.907Z,961.7210083
2023-02-19T06:37:37.269Z,961.7545166
2023-02-19T06:38:37.781Z,961.8318481
2023-02-19T06:39:38.283Z,961.7664185
2023-02-19T06:40:38.794Z,961.8096313
2023-02-19T06:41:39.369Z,961.7645264
2023-02-19T06:42:39.908Z,961.7893677
2023-02-19T06:43:41.286Z,961.8803101
2023-02-19T06:44:41.802Z,961.9176025
2023-02-19T06:45:42.293Z,961.9745483
2023-02-19T06:47:13.232Z,962.0065918
2023-02-19T06:48:13.691Z,962.0265503
2023-02-19T06:49:14.161Z,962.0640869
2023-02-19T06:50:14.663Z,962.0876465
2023-02-19T06:51:15.125Z,962.0264893
2023-02-19T06:52:15.658Z,962.0854492
2023-02-19T06:53:17.008Z,962.0449219
2023-02-19T06:54:17.493Z,962.1538086
2023-02-19T06:55:18.018Z,962.1541138
2023-02-19T06:56:18.505Z,962.1436157
2023-02-19T06:57:18.996Z,962.2399902
2023-02-19T06:58:19.511Z,962.1975708
2023-02-19T06:59:19.948Z,962.1762695
2023-02-19T07:00:21.201Z,962.1401367
2023-02-19T07:01:21.802Z,962.1785889
2023-02-19T07:02:22.204Z,962.163269
2023-02-19T07:03:23.493Z,962.1821899
2023-02-19T07:04:24.058Z,962.2150269
2023-02-19T07:05:24.483Z,962.2388916
2023-02-19T07:06:24.996Z,962.3057861
2023-02-19T07:07:25.497Z,962.3021851
2023-02-19T07:08:27.928Z,962.3527832
2023-02-19T07:09:26.445Z,962.3135986
2023-02-19T07:10:26.900Z,962.4371948
2023-02-19T07:11:27.343Z,962.3741455
2023-02-19T07:12:27.826Z,962.3926392
2023-02-19T07:13:29.217Z,962.4451294
2023-02-19T07:14:30.470Z,962.4629517
2023-02-19T07:15:30.976Z,962.463623
2023-02-19T07:16:31.543Z,962.4329834
2023-02-19T07:17:31.900Z,962.4509277
2023-02-19T07:18:32.422Z,962.4742432
2023-02-19T07:19:32.848Z,962.5003662
2023-02-19T07:20:33.307Z,962.4676514
2023-02-19T07:21:33.852Z,962.4979858
2023-02-19T07:22:34.468Z,962.5337524
2023-02-19T07:23:35.697Z,962.5063477
2023-02-19T07:24:36.173Z,962.5457764
2023-02-19T07:25:36.630Z,962.5761108
2023-02-19T07:26:37.188Z,962.5610352
2023-02-19T07:27:37.683Z,962.5862427
2023-02-19T07:28:39.001Z,962.6315918
2023-02-19T07:29:39.487Z,962.6450806
2023-02-19T07:30:39.959Z,962.6573486
2023-02-19T07:31:40.780Z,962.6710815
2023-02-19T07:32:41.296Z,962.6995239
2023-02-19T07:33:42.232Z,962.7120361
2023-02-19T07:35:12.964Z,962.7192383
2023-02-19T07:36:13.500Z,962.769043
2023-02-19T07:37:13.929Z,962.7206421
2023-02-19T07:38:14.443Z,962.7481079
2023-02-19T07:39:14.920Z,962.729126
2023-02-19T07:40:15.420Z,962.8060913
2023-02-19T07:41:16.011Z,962.7785645
2023-02-19T07:42:16.561Z,962.7677612
2023-02-19T07:43:17.987Z,962.7698975
2023-02-19T07:44:18.520Z,962.8093872
2023-02-19T07:45:18.969Z,962.8339233
2023-02-19T07:46:19.491Z,962.8290405
2023-02-19T07:47:20.020Z,962.8389282
2023-02-19T07:48:20.475Z,962.8309937
2023-02-19T07:49:20.969Z,962.8972168
2023-02-19T07:50:21.487Z,962.942749
2023-02-19T07:51:22.130Z,962.883728
2023-02-19T07:52:22.607Z,962.9174805
2023-02-19T07:53:24.001Z,962.9152222
2023-02-19T07:54:24.479Z,962.9420166
2023-02-19T07:55:24.975Z,962.9243774
2023-02-19T07:56:25.443Z,962.9193726
2023-02-19T07:57:25.955Z,962.8823242
2023-02-19T07:58:27.001Z,962.8988037
2023-02-19T07:59:27.466Z,962.8886719
2023-02-19T08:00:27.962Z,962.8914185
2023-02-19T08:01:28.469Z,962.8684082
2023-02-19T08:02:28.941Z,962.8875122
2023-02-19T08:03:30.000Z,962.8775024
2023-02-19T08:04:30.463Z,962.9338989
2023-02-19T08:05:30.957Z,962.916748
2023-02-19T08:06:31.468Z,962.9651489
2023-02-19T08:07:32.018Z,962.9572144
2023-02-19T08:08:32.580Z,962.9692383
2023-02-19T08:09:32.990Z,963.0072632
2023-02-19T08:10:33.475Z,963.0167236
2023-02-19T08:11:33.939Z,963.0065918
2023-02-19T08:12:34.442Z,963.0300293
2023-02-19T08:13:35.491Z,962.998291
2023-02-19T08:14:36.011Z,963.0301514
2023-02-19T08:15:36.530Z,963.0368652
2023-02-19T08:16:43.372Z,963.0667114
2023-02-19T08:17:37.577Z,963.0504761
2023-02-19T08:18:38.084Z,963.0563965
2023-02-19T08:19:38.565Z,963.107666
2023-02-19T08:20:39.052Z,963.1126709
2023-02-19T08:21:39.541Z,963.1239014
2023-02-19T08:22:40.058Z,963.1450806
2023-02-19T08:23:41.509Z,963.1833496
2023-02-19T08:25:12.242Z,963.2380981
2023-02-19T08:26:12.726Z,963.2323608
2023-02-19T08:27:13.241Z,963.2470093
2023-02-19T08:28:13.760Z,963.2349243
2023-02-19T08:29:14.256Z,963.2884521
2023-02-19T08:30:14.789Z,963.2836914
2023-02-19T08:31:15.589Z,963.249939
2023-02-19T08:32:15.863Z,963.2737427
2023-02-19T08:33:16.342Z,963.293335
2023-02-19T08:34:17.770Z,963.2891235
2023-02-19T08:35:18.346Z,963.3266602
2023-02-19T08:36:18.794Z,963.3116455
2023-02-19T08:37:19.345Z,963.3345337
2023-02-19T08:38:19.906Z,963.3356323
2023-02-19T08:39:21.111Z,963.3233032
2023-02-19T08:40:20.942Z,963.3171997
2023-02-19T08:41:21.405Z,963.3762207
2023-02-19T08:42:21.919Z,963.3829956
2023-02-19T08:43:22.429Z,963.4176636
2023-02-19T08:44:22.870Z,963.4367065
2023-02-19T08:45:24.242Z,963.4265747
2023-02-19T08:46:24.845Z,963.4683838
2023-02-19T08:47:25.251Z,963.4377441
2023-02-19T08:48:25.714Z,963.4389038
2023-02-19T08:49:26.195Z,963.4595337
2023-02-19T08:50:26.690Z,963.4477539
2023-02-19T08:51:27.195Z,963.4500732
2023-02-19T08:52:27.671Z,963.4154663
2023-02-19T08:53:28.202Z,963.4587402
2023-02-19T08:54:29.387Z,963.4795532
2023-02-19T08:55:29.750Z,963.491394
2023-02-19T08:56:30.993Z,963.5281372
2023-02-19T08:57:31.534Z,963.5253296
2023-02-19T08:58:32.046Z,963.5236206
2023-02-19T08:59:32.527Z,963.5318604
2023-02-19T09:00:33.997Z,963.5725098
2023-02-19T09:01:34.533Z,963.5891113
2023-02-19T09:02:34.996Z,963.600769
2023-02-19T09:03:35.471Z,963.7011108
2023-02-19T09:04:36.804Z,963.6645508
2023-02-19T09:05:37.325Z,963.6218262
2023-02-19T09:06:40.000Z,963.6306152
2023-02-19T09:07:38.328Z,963.6281128
2023-02-19T09:08:38.872Z,963.6453247
2023-02-19T09:09:39.495Z,963.5883789
2023-02-19T09:10:39.824Z,963.5999756
2023-02-19T09:11:40.421Z,963.4973145
2023-02-19T09:13:11.482Z,963.5488892
2023-02-19T09:14:12.789Z,963.5236206
2023-02-19T09:15:14.313Z,963.5324097
2023-02-19T09:16:14.723Z,963.5228271
2023-02-19T09:17:15.220Z,963.5142212
2023-02-19T09:18:15.698Z,963.4865112
2023-02-19T09:19:16.199Z,963.4658813
2023-02-19T09:20:16.728Z,963.4886475
2023-02-19T09:21:17.234Z,963.4528809
2023-02-19T09:22:17.772Z,963.4766235
2023-02-19T09:23:18.310Z,963.4529419
2023-02-19T09:24:19.525Z,963.3786011
2023-02-19T09:25:19.973Z,963.3894043
2023-02-19T09:26:20.547Z,963.3371582
2023-02-19T09:27:21.073Z,963.3453979
2023-02-19T09:28:21.541Z,963.3477173
2023-02-19T09:29:22.017Z,963.3651733
2023-02-19T09:30:23.165Z,963.3063965
2023-02-19T09:31:23.649Z,963.352478
2023-02-19T09:32:24.073Z,963.4126587
2023-02-19T09:33:24.640Z,963.3629761
2023-02-19T09:34:26.006Z,963.3537598
2023-02-19T09:35:26.454Z,963.3543091
2023-02-19T09:36:26.976Z,963.4141235
2023-02-19T09:37:27.492Z,963.4118652
2023-02-19T09:38:27.988Z,963.3417358
2023-02-19T09:39:28.492Z,963.3691406
2023-02-19T09:40:28.939Z,963.4190674
2023-02-19T09:41:29.513Z,963.3986206
2023-02-19T09:42:29.983Z,963.4447021
2023-02-19T09:43:30.539Z,963.4621582
2023-02-19T09:44:32.506Z,963.3878784
2023-02-19T09:45:32.967Z,963.4425659
2023-02-19T09:46:33.500Z,963.3582764
2023-02-19T09:47:33.987Z,963.3342285
2023-02-19T09:48:34.458Z,963.3329468
2023-02-19T09:49:35.537Z,963.4078979
2023-02-19T09:50:36.019Z,963.3026733
2023-02-19T09:51:36.500Z,963.3052979
2023-02-19T09:52:37.051Z,963.3079834
2023-02-19T09:53:37.552Z,963.3248291
2023-02-19T09:54:38.779Z,963.3275146
2023-02-19T09:55:39.782Z,963.3651733
2023-02-19T09:57:11.109Z,963.3404541
2023-02-19T09:58:11.661Z,963.3537598
2023-02-19T09:59:12.171Z,963.3711548
2023-02-19T10:00:13.234Z,963.3903198
2023-02-19T10:01:14.070Z,963.3848267
2023-02-19T10:02:14.195Z,963.3375244
2023-02-19T10:03:14.716Z,963.3694458
2023-02-19T10:04:16.026Z,963.418335
2023-02-19T10:05:16.618Z,963.401001
2023-02-19T10:06:16.999Z,963.3981323
2023-02-19T10:07:17.469Z,963.4263916
2023-02-19T10:08:18.047Z,963.4384155
2023-02-19T10:09:19.308Z,963.4263306
2023-02-19T10:10:19.897Z,963.4018555
2023-02-19T10:11:20.362Z,963.4126587
2023-02-19T10:12:20.801Z,963.3598633
2023-02-19T10:13:21.374Z,963.4260864
2023-02-19T10:14:22.527Z,963.3956299
2023-02-19T10:15:23.078Z,963.3790894
2023-02-19T10:16:23.557Z,963.3679199
2023-02-19T10:17:24.064Z,963.3950195
2023-02-19T10:18:24.616Z,963.4106445
2023-02-19T10:19:25.110Z,963.3702393
2023-02-19T10:20:25.720Z,963.4054565
2023-02-19T10:21:26.192Z,963.3786011
2023-02-19T10:22:26.651Z,963.345459
2023-02-19T10:23:27.190Z,963.3873291
2023-02-19T10:24:28.605Z,963.3608398
2023-02-19T10:25:29.153Z,963.2982788
2023-02-19T10:26:29.557Z,963.3161011
2023-02-19T10:27:30.049Z,963.3248291
2023-02-19T10:28:30.522Z,963.2891235
2023-02-19T10:29:31.123Z,963.2740479
2023-02-19T10:30:31.788Z,963.2521973
2023-02-19T10:31:32.912Z,963.274353
2023-02-19T10:32:33.283Z,963.3096924
2023-02-19T10:33:33.811Z,963.2977905
2023-02-19T10:34:35.025Z,963.2985229
2023-02-19T10:35:35.587Z,963.3474731
2023-02-19T10:36:36.439Z,963.3485718
2023-02-19T10:37:37.005Z,963.3520508
2023-02-19T10:38:37.482Z,963.3998413
2023-02-19T10:39:38.110Z,963.3751831
2023-02-19T10:40:38.851Z,963.3607788
2023-02-19T10:41:39.191Z,963.368042
2023-02-19T10:43:10.956Z,963.3779907
2023-02-19T10:44:11.571Z,963.3552856
2023-02-19T10:45:12.772Z,963.328186
2023-02-19T10:46:13.558Z,963.3256226
2023-02-19T10:47:14.031Z,963.3200073
2023-02-19T10:48:14.580Z,963.2810669
2023-02-19T10:49:15.424Z,963.2650146
2023-02-19T10:50:16.006Z,963.2985229
2023-02-19T10:51:16.517Z,963.2434082
2023-02-19T10:52:17.178Z,963.2254639
2023-02-19T10:53:18.024Z,963.2467041
2023-02-19T10:54:18.582Z,963.3167114
2023-02-19T10:55:19.856Z,963.2973633
2023-02-19T10:56:20.372Z,963.2606201
2023-02-19T10:57:21.130Z,963.303894
2023-02-19T10:58:21.882Z,963.2028198
2023-02-19T10:59:23.011Z,963.1710815
2023-02-19T11:00:23.544Z,963.2120972
2023-02-19T11:01:24.131Z,963.2062988
2023-02-19T11:02:24.624Z,963.1772461
2023-02-19T11:03:25.142Z,963.1923218